Hovedside
METAR-TAF:

METAR-TAF

Lufthavner :

Pointe-Noire, Kongo

breddegrad: 04-49S, lengdegrad: 011-54E, høyde over havet: 17 m

Gjeldene værobservasjon

Denne rapporten ble laget for 1 time og 53 minutter siden, klokken 03:00 UTC
Vind 5 kt fra Sør-sørvest
Temperatur 23°C
Luftfuktighet 89%
Trykk 1015 hPa
Sikt: 7000 m
Få skyer i en høyde av 1000 ft
Brutte skyer i en høyde av 2300 ft

METAR: FCPP 210300Z 21005KT 7000 FEW010 BKN023 23/21 Q1015 NOSIG

Tid: 05:53 (04:53 UTC)

Varsel

Denne rapporten ble laget for 5 timer og 53 minutter siden, klokken 23:00 UTC
Varsel gyldig fra 21. klokken 00 UTC til 21. klokken 24 UTC
Vind 4 kt fra Sør-sørvest
Sikt: 7000 m
Spredte skyer i en høyde av 1000 ft
Brutte skyer i en høyde av 2300 ft

TAF: FCPP 202300Z 2100/2124 20004KT 7000 SCT010 BKN023

Værobservasjoner og værvarsel for over 4000 flyplasser (METAR- og TAF-rapporter).

Tilgjengelige stasjoner er representert av de røde og gule prikkene på kartet.

Hold musepekeren over prikken for å se navnet på stasjonen.

Klikk så for å se værobservasjoner og -varsler.

For å forandre kartet kan du klikke på den grønne knappen med svart kryss for å zoome inn, på den grønne knappen med strek for å zoome ut, eller på de grønne pilene for å se tilstøtende kart.


METAR-TAF: